Time;durP1;ratioP1;P1;durP2;ratioP2;P2;SDS_P1;SDS_P2;PMS_P1;PMS_P2;Temp;Humidity;BMP_temperature;BMP_pressure;BME280_temperature;BME280_humidity;BME280_pressure;Samples;Min_cycle;Max_cycle;Signal;HPM_P1;HPM_P2
2021/12/31 00:01:27;;;;;;;0.50;0.20;;;;;;;;;;4197490;28;20074;-33
2021/12/31 00:03:28;;;;;;;0.35;0.30;;;;;;;;;;4215846;28;20105;-34
2021/12/31 00:05:29;;;;;;;0.85;0.57;;;;;;;;;;4216083;28;20080;-34
2021/12/31 00:07:30;;;;;;;0.82;0.40;;;;;;;;;;4215587;28;20438;-34
2021/12/31 00:09:31;;;;;;;0.40;0.22;;;;;;;;;;4215959;28;20048;-33
2021/12/31 00:11:34;;;;;;;1.05;0.30;;;;;;;;;;4215943;28;20478;-33
2021/12/31 00:13:35;;;;;;;1.05;0.50;;;;;;;;;;4215899;28;20044;-34
2021/12/31 00:15:35;;;;;;;1.45;0.40;;;;;;;;;;4197736;28;20136;-33
2021/12/31 00:17:36;;;;;;;0.40;0.30;;;;;;;;;;4215490;28;20101;-33
2021/12/31 00:19:43;;;;;;;0.47;0.40;;;;;;;;;;4215790;28;20047;-34
2021/12/31 00:21:47;;;;;;;0.45;0.30;;;;;;;;;;4215057;28;20052;-33
2021/12/31 00:23:48;;;;;;;0.65;0.40;;;;;;;;;;4197171;28;20158;-34
2021/12/31 00:25:49;;;;;;;0.43;0.22;;;;;;;;;;4215359;28;20052;-35
2021/12/31 00:27:50;;;;;;;0.80;0.55;;;;;;;;;;4215234;28;20137;-34
2021/12/31 00:29:51;;;;;;;0.43;0.20;;;;;;;;;;4215326;28;20400;-35
2021/12/31 00:31:52;;;;;;;0.95;0.40;;;;;;;;;;4215116;28;20094;-33
2021/12/31 00:33:53;;;;;;;0.93;0.50;;;;;;;;;;4215257;28;20102;-34
2021/12/31 00:35:54;;;;;;;0.52;0.38;;;;;;;;;;4215469;28;20105;-34
2021/12/31 00:37:55;;;;;;;1.15;0.50;;;;;;;;;;4214973;28;20075;-34
2021/12/31 00:39:56;;;;;;;1.08;0.52;;;;;;;;;;4215112;28;20059;-34
2021/12/31 00:41:57;;;;;;;0.68;0.30;;;;;;;;;;4215039;28;20484;-34
2021/12/31 00:43:58;;;;;;;1.00;0.40;;;;;;;;;;4215143;28;20094;-34
2021/12/31 00:46:01;;;;;;;1.75;0.40;;;;;;;;;;4215018;28;20491;-34
2021/12/31 00:48:03;;;;;;;1.42;0.40;;;;;;;;;;4214869;28;20048;-34
2021/12/31 00:50:04;;;;;;;1.10;0.40;;;;;;;;;;4215288;28;20047;-34
2021/12/31 00:52:07;;;;;;;1.33;0.40;;;;;;;;;;4214552;28;20483;-35
2021/12/31 00:54:08;;;;;;;0.85;0.30;;;;;;;;;;4215108;28;20048;-36
2021/12/31 00:56:08;;;;;;;0.63;0.40;;;;;;;;;;4215087;28;20104;-34
2021/12/31 00:58:09;;;;;;;0.60;0.40;;;;;;;;;;4214801;28;20494;-34
2021/12/31 01:00:12;;;;;;;0.38;0.20;;;;;;;;;;4214988;28;20497;-34
2021/12/31 01:02:15;;;;;;;0.82;0.35;;;;;;;;;;4214928;28;20056;-34
2021/12/31 01:04:17;;;;;;;0.40;0.38;;;;;;;;;;4214700;28;20532;-34
2021/12/31 01:06:18;;;;;;;0.50;0.40;;;;;;;;;;4214869;28;20063;-33
2021/12/31 01:08:18;;;;;;;0.90;0.40;;;;;;;;;;4214255;28;20387;-34
2021/12/31 01:10:22;;;;;;;0.52;0.40;;;;;;;;;;4214656;28;20086;-34
2021/12/31 01:12:25;;;;;;;1.65;0.40;;;;;;;;;;4213971;28;20048;-34
2021/12/31 01:14:34;;;;;;;0.40;0.20;;;;;;;;;;4214660;28;20056;-34
2021/12/31 01:16:38;;;;;;;0.73;0.40;;;;;;;;;;4214454;28;20167;-34
2021/12/31 01:21:04;;;;;;;0.75;0.47;;;;;;;;;;4176852;28;20052;-33
2021/12/31 01:23:08;;;;;;;0.63;0.30;;;;;;;;;;4213902;28;20113;-34
2021/12/31 01:25:09;;;;;;;0.47;0.30;;;;;;;;;;4214581;28;20113;-34
2021/12/31 01:27:11;;;;;;;0.93;0.32;;;;;;;;;;4214481;28;20048;-35
2021/12/31 01:29:12;;;;;;;1.08;0.40;;;;;;;;;;4214521;28;20052;-34
2021/12/31 01:31:13;;;;;;;0.77;0.40;;;;;;;;;;4214481;28;20454;-34
2021/12/31 01:33:14;;;;;;;0.40;0.30;;;;;;;;;;4214459;28;20123;-33
2021/12/31 01:35:15;;;;;;;0.40;0.30;;;;;;;;;;4214691;28;20052;-34
2021/12/31 01:37:16;;;;;;;0.50;0.30;;;;;;;;;;4214028;28;20051;-34
2021/12/31 01:39:17;;;;;;;1.08;0.50;;;;;;;;;;4214503;28;20124;-34
2021/12/31 01:41:19;;;;;;;0.50;0.40;;;;;;;;;;4214441;28;20052;-33
2021/12/31 01:43:20;;;;;;;0.50;0.47;;;;;;;;;;4214151;28;20377;-34
2021/12/31 01:45:23;;;;;;;0.68;0.40;;;;;;;;;;4214073;28;20048;-34
2021/12/31 01:47:34;;;;;;;1.08;0.40;;;;;;;;;;4214078;28;20094;-34
2021/12/31 01:49:38;;;;;;;0.35;0.30;;;;;;;;;;4214529;28;20040;-34
2021/12/31 01:51:40;;;;;;;0.70;0.20;;;;;;;;;;4213728;28;20404;-34
2021/12/31 01:53:41;;;;;;;0.70;0.47;;;;;;;;;;4214343;28;20055;-34
2021/12/31 01:55:42;;;;;;;0.32;0.30;;;;;;;;;;4214323;28;20135;-33
2021/12/31 01:57:43;;;;;;;0.40;0.30;;;;;;;;;;4213881;28;20399;-35
2021/12/31 01:59:44;;;;;;;0.65;0.30;;;;;;;;;;4196035;28;20083;-33
2021/12/31 02:01:45;;;;;;;1.27;0.43;;;;;;;;;;4214132;28;20110;-34
2021/12/31 02:03:47;;;;;;;1.33;0.47;;;;;;;;;;4214158;28;20050;-33
2021/12/31 02:05:48;;;;;;;1.13;0.32;;;;;;;;;;4214290;28;20052;-34
2021/12/31 02:07:49;;;;;;;0.32;0.20;;;;;;;;;;4213735;28;20044;-33
2021/12/31 02:09:54;;;;;;;0.52;0.28;;;;;;;;;;4213732;28;20051;-34
2021/12/31 02:11:55;;;;;;;0.85;0.30;;;;;;;;;;4213739;28;20048;-34
2021/12/31 02:13:56;;;;;;;0.32;0.30;;;;;;;;;;4213988;28;20055;-35
2021/12/31 02:15:57;;;;;;;0.32;0.25;;;;;;;;;;4214014;28;20060;-34
2021/12/31 02:18:00;;;;;;;0.43;0.25;;;;;;;;;;4195772;28;20121;-34
2021/12/31 02:20:05;;;;;;;0.52;0.32;;;;;;;;;;4213793;28;20052;-34
2021/12/31 02:22:07;;;;;;;0.88;0.43;;;;;;;;;;4195283;28;20423;-35
2021/12/31 02:24:08;;;;;;;1.08;0.30;;;;;;;;;;4213277;28;20060;-34
2021/12/31 02:26:10;;;;;;;0.20;0.20;;;;;;;;;;4213683;28;20036;-34
2021/12/31 02:28:10;;;;;;;0.68;0.40;;;;;;;;;;4213573;28;20480;-34
2021/12/31 02:30:12;;;;;;;0.65;0.30;;;;;;;;;;4213695;28;20048;-35
2021/12/31 02:32:13;;;;;;;0.47;0.28;;;;;;;;;;4195645;28;20139;-34
2021/12/31 02:34:14;;;;;;;0.80;0.20;;;;;;;;;;4195736;28;20500;-34
2021/12/31 02:36:16;;;;;;;0.63;0.35;;;;;;;;;;4213706;28;20476;-35
2021/12/31 02:38:17;;;;;;;0.77;0.30;;;;;;;;;;4213093;28;20052;-34
2021/12/31 02:40:19;;;;;;;0.90;0.30;;;;;;;;;;4195522;28;20095;-34
2021/12/31 02:42:20;;;;;;;0.35;0.22;;;;;;;;;;4213546;28;20052;-35
2021/12/31 02:44:21;;;;;;;0.43;0.20;;;;;;;;;;4213665;28;20151;-35
2021/12/31 02:46:22;;;;;;;0.40;0.20;;;;;;;;;;4213584;28;20052;-34
2021/12/31 02:48:27;;;;;;;0.32;0.30;;;;;;;;;;4213480;28;20090;-34
2021/12/31 02:50:35;;;;;;;0.75;0.40;;;;;;;;;;4213643;28;20481;-35
2021/12/31 02:52:36;;;;;;;0.63;0.40;;;;;;;;;;4213190;28;20064;-34
2021/12/31 02:54:39;;;;;;;0.88;0.38;;;;;;;;;;4213451;28;20052;-35
2021/12/31 02:56:40;;;;;;;0.28;0.10;;;;;;;;;;4212959;28;20441;-35
2021/12/31 02:58:43;;;;;;;0.43;0.28;;;;;;;;;;4213789;28;20048;-35
2021/12/31 03:00:44;;;;;;;0.32;0.20;;;;;;;;;;4213410;28;20044;-34
2021/12/31 03:02:45;;;;;;;0.80;0.35;;;;;;;;;;4213495;28;20094;-34
2021/12/31 03:04:46;;;;;;;1.17;0.32;;;;;;;;;;4213625;28;20052;-34
2021/12/31 03:06:49;;;;;;;0.43;0.22;;;;;;;;;;4213276;28;20056;-34
2021/12/31 03:08:51;;;;;;;0.30;0.22;;;;;;;;;;4213336;28;20052;-35
2021/12/31 03:10:52;;;;;;;0.85;0.30;;;;;;;;;;4213369;28;20048;-34
2021/12/31 03:12:53;;;;;;;0.65;0.30;;;;;;;;;;4213504;28;20056;-35
2021/12/31 03:14:54;;;;;;;0.82;0.45;;;;;;;;;;4213695;28;20109;-34
2021/12/31 03:16:57;;;;;;;0.52;0.20;;;;;;;;;;4213191;28;20101;-34
2021/12/31 03:18:58;;;;;;;0.47;0.25;;;;;;;;;;4213618;28;20106;-35
2021/12/31 03:21:12;;;;;;;0.55;0.35;;;;;;;;;;4213275;28;20048;-34
2021/12/31 03:23:13;;;;;;;0.25;0.20;;;;;;;;;;4194576;28;20048;-35
2021/12/31 03:25:14;;;;;;;0.20;0.20;;;;;;;;;;4213198;28;20326;-35
2021/12/31 03:27:15;;;;;;;0.40;0.20;;;;;;;;;;4202905;28;20102;-34
2021/12/31 03:29:16;;;;;;;0.45;0.30;;;;;;;;;;4196633;28;20052;-34
2021/12/31 03:31:17;;;;;;;0.30;0.30;;;;;;;;;;4196673;28;20044;-34
2021/12/31 03:33:18;;;;;;;0.20;0.20;;;;;;;;;;4196766;28;20091;-34
2021/12/31 03:35:19;;;;;;;0.45;0.20;;;;;;;;;;4197334;28;20492;-34
2021/12/31 03:37:20;;;;;;;0.25;0.20;;;;;;;;;;4181238;28;20095;-35
2021/12/31 03:39:21;;;;;;;0.30;0.30;;;;;;;;;;4199160;28;20102;-34
2021/12/31 03:41:22;;;;;;;0.80;0.40;;;;;;;;;;4199732;28;20087;-35
2021/12/31 03:43:23;;;;;;;0.35;0.20;;;;;;;;;;4199362;28;20052;-34
2021/12/31 03:45:24;;;;;;;0.28;0.20;;;;;;;;;;4212371;28;20448;-35
2021/12/31 03:47:25;;;;;;;0.38;0.30;;;;;;;;;;4216076;28;20048;-34
2021/12/31 03:49:26;;;;;;;0.68;0.47;;;;;;;;;;4216053;28;20093;-34
2021/12/31 03:51:27;;;;;;;0.65;0.38;;;;;;;;;;4216218;28;20040;-34
2021/12/31 03:53:28;;;;;;;0.90;0.25;;;;;;;;;;4215958;28;20044;-33
2021/12/31 03:55:29;;;;;;;0.60;0.30;;;;;;;;;;4214786;28;20392;-34
2021/12/31 03:57:30;;;;;;;0.30;0.20;;;;;;;;;;4214639;28;20173;-34
2021/12/31 03:59:31;;;;;;;0.43;0.22;;;;;;;;;;4216329;28;20048;-34
2021/12/31 04:01:32;;;;;;;0.68;0.40;;;;;;;;;;4216153;28;20463;-34
2021/12/31 04:03:33;;;;;;;0.63;0.30;;;;;;;;;;4216209;28;20530;-34
2021/12/31 04:05:35;;;;;;;0.60;0.20;;;;;;;;;;4216135;28;20182;-34
2021/12/31 04:07:36;;;;;;;0.40;0.30;;;;;;;;;;4215229;28;20052;-35
2021/12/31 04:09:37;;;;;;;0.30;0.15;;;;;;;;;;4215836;28;20098;-35
2021/12/31 04:11:38;;;;;;;0.32;0.28;;;;;;;;;;4214563;28;20098;-34
2021/12/31 04:13:39;;;;;;;0.95;0.30;;;;;;;;;;4214417;28;20055;-34
2021/12/31 04:15:40;;;;;;;0.30;0.30;;;;;;;;;;4215683;28;20113;-34
2021/12/31 04:17:41;;;;;;;0.43;0.28;;;;;;;;;;4215554;28;20048;-34
2021/12/31 04:19:43;;;;;;;0.60;0.28;;;;;;;;;;4214496;28;20151;-34
2021/12/31 04:21:44;;;;;;;0.73;0.28;;;;;;;;;;4215161;28;20048;-34
2021/12/31 04:24:03;;;;;;;0.17;0.10;;;;;;;;;;4221957;28;20440;-35
2021/12/31 04:26:06;;;;;;;0.65;0.20;;;;;;;;;;4232481;28;20093;-34
2021/12/31 04:28:07;;;;;;;0.25;0.22;;;;;;;;;;4214064;28;20060;-34
2021/12/31 04:30:08;;;;;;;0.55;0.20;;;;;;;;;;4232352;28;20048;-34
2021/12/31 04:32:09;;;;;;;0.25;0.20;;;;;;;;;;4232131;28;20047;-34
2021/12/31 04:34:10;;;;;;;0.52;0.40;;;;;;;;;;4232200;28;20054;-34
2021/12/31 04:36:11;;;;;;;0.73;0.38;;;;;;;;;;4232148;28;20639;-35
2021/12/31 04:38:12;;;;;;;0.77;0.40;;;;;;;;;;4231863;28;20051;-35
2021/12/31 04:40:14;;;;;;;0.13;0.10;;;;;;;;;;4232393;28;20088;-34
2021/12/31 04:42:15;;;;;;;0.38;0.30;;;;;;;;;;4232094;28;20097;-34
2021/12/31 04:44:16;;;;;;;0.55;0.30;;;;;;;;;;4232254;28;20052;-34
2021/12/31 04:46:17;;;;;;;0.20;0.20;;;;;;;;;;4232108;28;20086;-34
2021/12/31 04:48:18;;;;;;;0.25;0.20;;;;;;;;;;4231779;28;20039;-35
2021/12/31 04:50:19;;;;;;;0.20;0.20;;;;;;;;;;4213959;28;20116;-34
2021/12/31 04:52:20;;;;;;;0.82;0.43;;;;;;;;;;4231218;28;20043;-35
2021/12/31 04:54:21;;;;;;;0.40;0.30;;;;;;;;;;4231791;28;20047;-34
2021/12/31 04:56:22;;;;;;;0.25;0.20;;;;;;;;;;4213841;28;20380;-35
2021/12/31 04:58:23;;;;;;;0.13;0.10;;;;;;;;;;4231628;28;20094;-35
2021/12/31 05:00:24;;;;;;;0.55;0.20;;;;;;;;;;4231754;28;20136;-34
2021/12/31 05:02:26;;;;;;;0.45;0.25;;;;;;;;;;4231600;28;20050;-34
2021/12/31 05:04:27;;;;;;;0.30;0.20;;;;;;;;;;4231770;28;20372;-35
2021/12/31 05:06:27;;;;;;;0.28;0.20;;;;;;;;;;4231594;28;20066;-34
2021/12/31 05:08:28;;;;;;;0.30;0.20;;;;;;;;;;4231154;28;20059;-34
2021/12/31 05:10:33;;;;;;;0.32;0.20;;;;;;;;;;4231920;28;20080;-34
2021/12/31 05:12:36;;;;;;;0.30;0.20;;;;;;;;;;4231661;28;20047;-34
2021/12/31 05:14:37;;;;;;;0.30;0.20;;;;;;;;;;4231525;28;20055;-34
2021/12/31 05:16:38;;;;;;;0.10;0.10;;;;;;;;;;4213301;28;20640;-34
2021/12/31 05:18:39;;;;;;;0.20;0.20;;;;;;;;;;4231290;28;20129;-34
2021/12/31 05:20:40;;;;;;;0.40;0.20;;;;;;;;;;4231321;28;20055;-34
2021/12/31 05:22:41;;;;;;;0.25;0.20;;;;;;;;;;4230751;28;20048;-34
2021/12/31 05:24:42;;;;;;;0.20;0.20;;;;;;;;;;4220768;28;20101;-34
2021/12/31 05:26:43;;;;;;;0.10;0.10;;;;;;;;;;4214170;28;20048;-34
2021/12/31 05:28:44;;;;;;;0.60;0.20;;;;;;;;;;4214407;28;20052;-34
2021/12/31 05:30:45;;;;;;;0.22;0.10;;;;;;;;;;4214454;28;20105;-34
2021/12/31 05:32:46;;;;;;;0.50;0.28;;;;;;;;;;4213891;28;20058;-35
2021/12/31 05:34:47;;;;;;;0.28;0.20;;;;;;;;;;4214557;28;20102;-34
2021/12/31 05:36:48;;;;;;;0.30;0.20;;;;;;;;;;4195818;28;20048;-34
2021/12/31 05:38:49;;;;;;;0.60;0.30;;;;;;;;;;4214353;28;20501;-34
2021/12/31 05:40:51;;;;;;;0.25;0.20;;;;;;;;;;4196254;28;20044;-34
2021/12/31 05:42:52;;;;;;;0.50;0.17;;;;;;;;;;4214383;28;20048;-34
2021/12/31 05:44:53;;;;;;;0.47;0.25;;;;;;;;;;4214358;28;20055;-34
2021/12/31 05:46:55;;;;;;;0.10;0.10;;;;;;;;;;4214435;28;20095;-34
2021/12/31 05:48:56;;;;;;;0.32;0.20;;;;;;;;;;4212541;28;20318;-34
2021/12/31 05:50:57;;;;;;;1.20;0.20;;;;;;;;;;4214339;28;20052;-34
2021/12/31 05:52:59;;;;;;;0.22;0.20;;;;;;;;;;4213759;28;20070;-34
2021/12/31 05:55:00;;;;;;;0.38;0.22;;;;;;;;;;4214067;28;20055;-34
2021/12/31 05:57:01;;;;;;;0.28;0.25;;;;;;;;;;4214074;28;20051;-34
2021/12/31 05:59:02;;;;;;;0.52;0.22;;;;;;;;;;4213606;28;20480;-34
2021/12/31 06:01:03;;;;;;;0.20;0.20;;;;;;;;;;4214130;28;20094;-34
2021/12/31 06:03:04;;;;;;;0.88;0.30;;;;;;;;;;4214085;28;20090;-34
2021/12/31 06:05:05;;;;;;;0.20;0.20;;;;;;;;;;4214159;28;20121;-34
2021/12/31 06:07:07;;;;;;;0.32;0.20;;;;;;;;;;4213495;28;20065;-34
2021/12/31 06:09:09;;;;;;;0.75;0.20;;;;;;;;;;4214055;28;20058;-34
2021/12/31 06:11:10;;;;;;;0.20;0.20;;;;;;;;;;4214118;28;20081;-34
2021/12/31 06:13:11;;;;;;;0.28;0.17;;;;;;;;;;4212891;28;20040;-35
2021/12/31 06:15:16;;;;;;;0.60;0.20;;;;;;;;;;4213004;28;20056;-34
2021/12/31 06:17:22;;;;;;;0.40;0.20;;;;;;;;;;4213050;28;20638;-34
2021/12/31 06:19:23;;;;;;;0.68;0.50;;;;;;;;;;4213391;28;20385;-34
2021/12/31 06:21:24;;;;;;;0.43;0.28;;;;;;;;;;4213264;28;20090;-34
2021/12/31 06:23:25;;;;;;;0.10;0.10;;;;;;;;;;4194576;28;20186;-34
2021/12/31 06:25:26;;;;;;;0.15;0.10;;;;;;;;;;4213191;28;20096;-35
2021/12/31 06:27:27;;;;;;;0.20;0.20;;;;;;;;;;4213081;28;20060;-34
2021/12/31 06:29:28;;;;;;;0.40;0.20;;;;;;;;;;4213314;28;20132;-35
2021/12/31 06:31:29;;;;;;;1.65;0.20;;;;;;;;;;4213252;28;20096;-34
2021/12/31 06:33:30;;;;;;;1.00;0.40;;;;;;;;;;4213110;28;20052;-34
2021/12/31 06:35:31;;;;;;;0.10;0.10;;;;;;;;;;4213186;28;20090;-34
2021/12/31 06:37:32;;;;;;;0.40;0.20;;;;;;;;;;4212848;28;20326;-35
2021/12/31 06:39:35;;;;;;;0.60;0.30;;;;;;;;;;4212787;28;20051;-34
2021/12/31 06:41:36;;;;;;;0.30;0.20;;;;;;;;;;4213387;28;20093;-34
2021/12/31 06:43:37;;;;;;;0.45;0.30;;;;;;;;;;4213786;28;20641;-34
2021/12/31 06:45:38;;;;;;;0.20;0.10;;;;;;;;;;4213564;28;20060;-34
2021/12/31 06:47:39;;;;;;;0.43;0.20;;;;;;;;;;4213614;28;20048;-34
2021/12/31 06:49:42;;;;;;;0.20;0.20;;;;;;;;;;4213818;28;20091;-34
2021/12/31 06:51:42;;;;;;;0.28;0.25;;;;;;;;;;4213406;28;20040;-34
2021/12/31 06:53:44;;;;;;;0.30;0.10;;;;;;;;;;4213686;28;20476;-34
2021/12/31 06:55:45;;;;;;;0.55;0.20;;;;;;;;;;4213683;28;20145;-34
2021/12/31 06:57:47;;;;;;;0.30;0.20;;;;;;;;;;4213416;28;20048;-34
2021/12/31 06:59:48;;;;;;;0.40;0.32;;;;;;;;;;4213511;28;20109;-34
2021/12/31 07:01:48;;;;;;;0.22;0.22;;;;;;;;;;4213163;28;20562;-34
2021/12/31 07:03:49;;;;;;;0.40;0.20;;;;;;;;;;4213380;28;20140;-34
2021/12/31 07:05:50;;;;;;;0.35;0.20;;;;;;;;;;4213722;28;20078;-35
2021/12/31 07:07:51;;;;;;;0.30;0.30;;;;;;;;;;4213143;28;20419;-35
2021/12/31 07:09:52;;;;;;;0.30;0.20;;;;;;;;;;4213597;28;20164;-34
2021/12/31 07:11:53;;;;;;;0.30;0.20;;;;;;;;;;4216671;28;20056;-35
2021/12/31 07:13:54;;;;;;;0.20;0.15;;;;;;;;;;4216351;28;20094;-34
2021/12/31 07:15:55;;;;;;;0.40;0.30;;;;;;;;;;4215781;28;20482;-34
2021/12/31 07:17:56;;;;;;;0.30;0.25;;;;;;;;;;4198220;28;20053;-34
2021/12/31 07:19:57;;;;;;;0.20;0.20;;;;;;;;;;4216268;28;20102;-35
2021/12/31 07:21:58;;;;;;;0.28;0.20;;;;;;;;;;4215891;28;20077;-34
2021/12/31 07:23:59;;;;;;;0.40;0.25;;;;;;;;;;4197887;28;20174;-34
2021/12/31 07:26:01;;;;;;;0.30;0.10;;;;;;;;;;4216222;28;20233;-34
2021/12/31 07:28:02;;;;;;;0.30;0.20;;;;;;;;;;4216220;28;20093;-34
2021/12/31 07:30:04;;;;;;;0.20;0.20;;;;;;;;;;4216547;28;20048;-34
2021/12/31 07:32:05;;;;;;;0.30;0.20;;;;;;;;;;4216013;28;20048;-34
2021/12/31 07:34:06;;;;;;;0.10;0.10;;;;;;;;;;4216006;28;20093;-34
2021/12/31 07:36:07;;;;;;;0.40;0.20;;;;;;;;;;4216102;28;20103;-34
2021/12/31 07:38:11;;;;;;;0.43;0.20;;;;;;;;;;4215474;28;20048;-34
2021/12/31 07:40:12;;;;;;;0.60;0.10;;;;;;;;;;4215749;28;20048;-34
2021/12/31 07:42:14;;;;;;;0.55;0.30;;;;;;;;;;4216011;28;20044;-34
2021/12/31 07:44:15;;;;;;;0.10;0.10;;;;;;;;;;4215921;28;20338;-34
2021/12/31 07:46:15;;;;;;;0.30;0.17;;;;;;;;;;4216236;28;20094;-34
2021/12/31 07:48:16;;;;;;;0.35;0.17;;;;;;;;;;4216059;28;20094;-34
2021/12/31 07:50:17;;;;;;;0.20;0.13;;;;;;;;;;4215955;28;20052;-34
2021/12/31 07:52:18;;;;;;;0.20;0.20;;;;;;;;;;4215677;28;20196;-34
2021/12/31 07:54:19;;;;;;;0.20;0.20;;;;;;;;;;4215966;28;20052;-34
2021/12/31 07:56:21;;;;;;;0.30;0.20;;;;;;;;;;4216008;28;20082;-34
2021/12/31 07:58:24;;;;;;;0.30;0.20;;;;;;;;;;4216115;28;20048;-34
2021/12/31 08:00:25;;;;;;;0.43;0.25;;;;;;;;;;4198335;28;20044;-34
2021/12/31 08:02:25;;;;;;;0.30;0.10;;;;;;;;;;4215632;28;20059;-35
2021/12/31 08:04:26;;;;;;;0.85;0.40;;;;;;;;;;4216112;28;20137;-34
2021/12/31 08:06:27;;;;;;;0.50;0.30;;;;;;;;;;4215815;28;20092;-35
2021/12/31 08:08:28;;;;;;;0.68;0.28;;;;;;;;;;4215461;28;20051;-34
2021/12/31 08:10:29;;;;;;;0.47;0.30;;;;;;;;;;4197779;28;20091;-34
2021/12/31 08:12:32;;;;;;;0.43;0.20;;;;;;;;;;4215636;28;20101;-34
2021/12/31 08:14:34;;;;;;;0.30;0.20;;;;;;;;;;4215603;28;20479;-35
2021/12/31 08:16:34;;;;;;;0.40;0.20;;;;;;;;;;4215567;28;20099;-35
2021/12/31 08:18:35;;;;;;;0.40;0.20;;;;;;;;;;4215479;28;20168;-35
2021/12/31 08:20:37;;;;;;;0.40;0.20;;;;;;;;;;4215599;28;20086;-35
2021/12/31 08:22:38;;;;;;;0.40;0.20;;;;;;;;;;4214872;28;20419;-34
2021/12/31 08:24:39;;;;;;;0.47;0.32;;;;;;;;;;4215241;28;20101;-34
2021/12/31 08:26:40;;;;;;;0.70;0.20;;;;;;;;;;4215650;28;20113;-34
2021/12/31 08:28:41;;;;;;;0.20;0.20;;;;;;;;;;4215448;28;20101;-34
2021/12/31 08:30:42;;;;;;;0.30;0.20;;;;;;;;;;4215334;28;20079;-34
2021/12/31 08:32:43;;;;;;;0.10;0.10;;;;;;;;;;4215160;28;20055;-34
2021/12/31 08:34:44;;;;;;;0.35;0.22;;;;;;;;;;4215648;28;20052;-34
2021/12/31 08:36:45;;;;;;;0.15;0.13;;;;;;;;;;4215013;28;20474;-34
2021/12/31 08:38:46;;;;;;;0.25;0.20;;;;;;;;;;4215373;28;20522;-34
2021/12/31 08:40:46;;;;;;;0.35;0.30;;;;;;;;;;4215490;28;20100;-34
2021/12/31 08:42:48;;;;;;;0.15;0.15;;;;;;;;;;4215063;28;20459;-34
2021/12/31 08:44:48;;;;;;;0.20;0.20;;;;;;;;;;4215009;28;20048;-34
2021/12/31 08:46:49;;;;;;;0.20;0.20;;;;;;;;;;4215069;28;20669;-34
2021/12/31 08:48:50;;;;;;;0.30;0.20;;;;;;;;;;4215040;28;20048;-34
2021/12/31 08:50:51;;;;;;;0.28;0.20;;;;;;;;;;4215175;28;20047;-36
2021/12/31 08:52:53;;;;;;;0.20;0.20;;;;;;;;;;4214894;28;20510;-35
2021/12/31 08:54:53;;;;;;;0.10;0.10;;;;;;;;;;4214966;28;20056;-34
2021/12/31 08:56:55;;;;;;;0.20;0.10;;;;;;;;;;4214780;28;20056;-36
2021/12/31 08:58:56;;;;;;;0.20;0.15;;;;;;;;;;4214928;28;20381;-35
2021/12/31 09:00:57;;;;;;;0.30;0.22;;;;;;;;;;4197169;28;20102;-34
2021/12/31 09:02:58;;;;;;;0.20;0.20;;;;;;;;;;4214709;28;20105;-35
2021/12/31 09:04:59;;;;;;;0.20;0.17;;;;;;;;;;4214646;28;20050;-34
2021/12/31 09:07:00;;;;;;;0.47;0.35;;;;;;;;;;4213783;28;20052;-34
2021/12/31 09:09:03;;;;;;;0.22;0.20;;;;;;;;;;4214043;28;20048;-35
2021/12/31 09:11:04;;;;;;;0.30;0.20;;;;;;;;;;4214929;28;20044;-35
2021/12/31 09:13:05;;;;;;;0.90;0.40;;;;;;;;;;4214495;28;20077;-34
2021/12/31 09:15:06;;;;;;;0.20;0.20;;;;;;;;;;4196745;28;20105;-34
2021/12/31 09:17:07;;;;;;;0.52;0.15;;;;;;;;;;4196538;28;20056;-34
2021/12/31 09:19:08;;;;;;;0.30;0.20;;;;;;;;;;4196946;28;20044;-34
2021/12/31 09:21:10;;;;;;;0.40;0.20;;;;;;;;;;4214709;28;20056;-35
2021/12/31 09:23:11;;;;;;;0.55;0.22;;;;;;;;;;4213860;28;20063;-34
2021/12/31 09:25:12;;;;;;;0.20;0.20;;;;;;;;;;4214165;28;20048;-35
2021/12/31 09:27:13;;;;;;;0.68;0.20;;;;;;;;;;4214268;28;20326;-34
2021/12/31 09:29:18;;;;;;;0.52;0.15;;;;;;;;;;4196352;28;20171;-34
2021/12/31 09:31:19;;;;;;;0.25;0.10;;;;;;;;;;4213994;28;20052;-34
2021/12/31 09:33:20;;;;;;;0.20;0.20;;;;;;;;;;4195495;28;20075;-34
2021/12/31 09:35:21;;;;;;;0.15;0.10;;;;;;;;;;4213763;28;20117;-35
2021/12/31 09:37:22;;;;;;;0.30;0.20;;;;;;;;;;4213751;28;20048;-34
2021/12/31 09:39:23;;;;;;;0.20;0.20;;;;;;;;;;4214192;28;20056;-35
2021/12/31 09:41:24;;;;;;;0.20;0.20;;;;;;;;;;4214295;28;20058;-34
2021/12/31 09:43:25;;;;;;;0.43;0.20;;;;;;;;;;4214012;28;20557;-34
2021/12/31 09:45:30;;;;;;;0.40;0.20;;;;;;;;;;4214398;28;20052;-35
2021/12/31 09:47:31;;;;;;;0.10;0.10;;;;;;;;;;4214058;28;20381;-34
2021/12/31 09:49:32;;;;;;;1.05;0.20;;;;;;;;;;4214138;28;20071;-34
2021/12/31 09:51:34;;;;;;;0.20;0.20;;;;;;;;;;4214300;28;20040;-34
2021/12/31 09:53:35;;;;;;;0.35;0.22;;;;;;;;;;4213846;28;20044;-34
2021/12/31 09:55:37;;;;;;;0.17;0.17;;;;;;;;;;4214080;28;20048;-33
2021/12/31 09:57:38;;;;;;;0.55;0.25;;;;;;;;;;4213950;28;20485;-34
2021/12/31 09:59:41;;;;;;;0.10;0.10;;;;;;;;;;4214032;28;20048;-35
2021/12/31 10:01:48;;;;;;;0.45;0.20;;;;;;;;;;4195929;28;20048;-35
2021/12/31 10:03:54;;;;;;;0.43;0.25;;;;;;;;;;4214083;28;20484;-34
2021/12/31 10:05:56;;;;;;;0.10;0.10;;;;;;;;;;4213872;28;20048;-34
2021/12/31 10:07:57;;;;;;;0.10;0.10;;;;;;;;;;4212969;28;20101;-34
2021/12/31 10:10:07;;;;;;;0.95;0.28;;;;;;;;;;4213457;28;20131;-35
2021/12/31 10:12:08;;;;;;;;;;;;;;;;;;4213979;28;20048;-34
2021/12/31 10:14:09;;;;;;;0.47;0.20;;;;;;;;;;4213282;28;19996;-34
2021/12/31 10:16:22;;;;;;;0.60;0.20;;;;;;;;;;4213283;28;20441;-34
2021/12/31 10:18:36;;;;;;;0.10;0.10;;;;;;;;;;4213241;28;20048;-34
2021/12/31 10:20:50;;;;;;;0.20;0.20;;;;;;;;;;4213372;28;20058;-35
2021/12/31 10:23:11;;;;;;;0.65;0.30;;;;;;;;;;4212839;28;20052;-34
2021/12/31 10:25:16;;;;;;;0.57;0.20;;;;;;;;;;4212989;28;20047;-35
2021/12/31 10:27:19;;;;;;;0.20;0.20;;;;;;;;;;4213388;28;20071;-34
2021/12/31 10:29:20;;;;;;;0.10;0.10;;;;;;;;;;4213298;28;20051;-35
2021/12/31 10:31:21;;;;;;;1.15;0.20;;;;;;;;;;4196043;28;20049;-34
2021/12/31 10:33:39;;;;;;;0.85;0.30;;;;;;;;;;4212844;28;20044;-35
2021/12/31 10:35:43;;;;;;;0.40;0.20;;;;;;;;;;4213497;28;20048;-35
2021/12/31 10:37:45;;;;;;;0.10;0.10;;;;;;;;;;4212983;28;20442;-34
2021/12/31 10:39:54;;;;;;;0.75;0.20;;;;;;;;;;4213450;28;20389;-35
2021/12/31 10:42:06;;;;;;;0.10;0.10;;;;;;;;;;4195954;28;20053;-35
2021/12/31 10:44:07;;;;;;;0.20;0.10;;;;;;;;;;4214293;28;20056;-34
2021/12/31 10:46:09;;;;;;;0.17;0.17;;;;;;;;;;4217305;28;20060;-34
2021/12/31 10:48:10;;;;;;;0.28;0.20;;;;;;;;;;4217233;28;20048;-35
2021/12/31 10:50:16;;;;;;;0.40;0.17;;;;;;;;;;4199107;28;20572;-34
2021/12/31 10:52:25;;;;;;;0.55;0.20;;;;;;;;;;4216537;28;20047;-34
2021/12/31 10:54:46;;;;;;;0.10;0.10;;;;;;;;;;4186126;28;20044;-35
2021/12/31 10:56:46;;;;;;;0.10;0.10;;;;;;;;;;4183758;28;20115;-34
2021/12/31 10:58:57;;;;;;;0.20;0.10;;;;;;;;;;4183567;28;20111;-34
2021/12/31 11:00:59;;;;;;;;;;;;;;;;;;4184015;28;20449;-35
2021/12/31 11:03:00;;;;;;;0.30;0.10;;;;;;;;;;4183521;28;20030;-34
2021/12/31 11:05:01;;;;;;;0.25;0.13;;;;;;;;;;4183513;28;20151;-34
2021/12/31 11:07:03;;;;;;;0.38;0.32;;;;;;;;;;4182245;28;20489;-34
2021/12/31 11:09:06;;;;;;;0.22;0.10;;;;;;;;;;4182932;28;20049;-35
2021/12/31 11:11:07;;;;;;;0.30;0.20;;;;;;;;;;4182826;28;20057;-36
2021/12/31 11:13:17;;;;;;;0.30;0.20;;;;;;;;;;4183023;28;20049;-35
2021/12/31 11:15:18;;;;;;;0.10;0.10;;;;;;;;;;4165672;28;20511;-34
2021/12/31 11:17:19;;;;;;;0.40;0.20;;;;;;;;;;4183119;28;20048;-34
2021/12/31 11:19:20;;;;;;;0.20;0.20;;;;;;;;;;4165814;28;20103;-33
2021/12/31 11:21:22;;;;;;;0.43;0.10;;;;;;;;;;4182991;28;20436;-33
2021/12/31 11:23:27;;;;;;;0.25;0.20;;;;;;;;;;4185356;28;20613;-33
2021/12/31 11:25:28;;;;;;;1.58;0.10;;;;;;;;;;4181385;28;20111;-34
2021/12/31 11:27:30;;;;;;;0.15;0.10;;;;;;;;;;4198928;28;20059;-34
2021/12/31 11:29:36;;;;;;;0.95;0.30;;;;;;;;;;4181438;28;20052;-34
2021/12/31 11:31:40;;;;;;;0.63;0.32;;;;;;;;;;4165306;28;20049;-35
2021/12/31 11:33:43;;;;;;;0.30;0.10;;;;;;;;;;4199341;28;20499;-34
2021/12/31 11:35:56;;;;;;;0.10;0.10;;;;;;;;;;4199430;28;20105;-34
2021/12/31 11:37:57;;;;;;;0.57;0.20;;;;;;;;;;4199300;28;20052;-33
2021/12/31 11:40:16;;;;;;;0.10;0.10;;;;;;;;;;4199736;28;20072;-35
2021/12/31 11:42:17;;;;;;;0.10;0.10;;;;;;;;;;4199423;28;20061;-34
2021/12/31 11:44:20;;;;;;;0.43;0.38;;;;;;;;;;4199207;28;20098;-34
2021/12/31 11:46:27;;;;;;;0.28;0.20;;;;;;;;;;4181520;28;20045;-34
2021/12/31 11:48:43;;;;;;;0.20;0.10;;;;;;;;;;4199279;28;20060;-34
2021/12/31 11:51:01;;;;;;;0.10;0.10;;;;;;;;;;4199281;28;20404;-34
2021/12/31 11:53:02;;;;;;;0.15;0.10;;;;;;;;;;4198759;28;20553;-34
2021/12/31 11:55:18;;;;;;;0.40;0.20;;;;;;;;;;4199315;28;20056;-34
2021/12/31 11:57:26;;;;;;;0.25;0.10;;;;;;;;;;4198426;28;20059;-34
2021/12/31 11:59:29;;;;;;;0.10;0.10;;;;;;;;;;4199370;28;20084;-34
2021/12/31 12:01:35;;;;;;;0.30;0.17;;;;;;;;;;4199114;28;20118;-36
2021/12/31 12:03:36;;;;;;;0.10;0.10;;;;;;;;;;4199059;28;20052;-35
2021/12/31 12:05:41;;;;;;;0.15;0.10;;;;;;;;;;4164630;28;20137;-35
2021/12/31 12:07:46;;;;;;;0.10;0.10;;;;;;;;;;4197901;28;20484;-34
2021/12/31 12:09:47;;;;;;;0.73;0.20;;;;;;;;;;4181107;28;20603;-34
2021/12/31 12:12:01;;;;;;;0.10;0.10;;;;;;;;;;4198331;28;20048;-34
2021/12/31 12:14:26;;;;;;;0.35;0.22;;;;;;;;;;4198767;28;20048;-34
2021/12/31 12:16:46;;;;;;;0.35;0.30;;;;;;;;;;4198910;28;20051;-34